首页
METAR-TAF:

METAR-TAF

机场 :

贵阳龙洞堡国际机场

贵阳市, 中华人民共和国

纬度: 26-32-19N, 经度: 106-48-03E, 海拔: 1139米

当前天气观测

该预报发布于1小时和1分钟前的07:00 UTC
风速8节,风向北转东北
温度 18°C
湿度 94%
气压 1017 hPa
能见度10公里或以上
散云层高于1000英尺
少量云层高于3000英尺, 塔状积云.
阴天层高于4000英尺
小阵雨

METAR: ZUGY 220700Z 02004MPS 9999 -SHRA SCT010 FEW030TCU OVC040 18/17 Q1017 RETSRA NOSIG

时间: 16:01 (08:01 UTC)

预报

该预报发布于4小时和43分钟前的03:18 UTC
预报有效从22日的 06点(UTC)到 23日的 06点(UTC)
风速8节,风向北转西北,有时为17节阵风
能見度: 6000
多云层高于1500英尺
阴天层高于3300英尺

TAF: ZUGY 220318Z 2206/2306 33004G09MPS 6000 BKN015 OVC033 TX25/2206Z TN14/2222Z

超过4000个机场的气象观测和天气预报(METAR&TAF报告)。

可查询的气象台以黄色和红色小点在地图上表示。

将鼠标移到小点上方,可查看气象台名称。

然后点击查看天气观测和预报。

如需切换地图:点击带黑十字的绿色按钮放大地图;点击带横线的绿色按钮缩小地图;或者点击绿色箭头查看邻近地区的地图。


METAR-TAF: